Time;durP1;ratioP1;P1;durP2;ratioP2;P2;SDS_P1;SDS_P2;PMS_P1;PMS_P2;Temp;Humidity;BMP_temperature;BMP_pressure;BME280_temperature;BME280_humidity;BME280_pressure;Samples;Min_cycle;Max_cycle;Signal;HPM_P1;HPM_P2
2023/09/28 00:01:35;;;;;;;5.60;5.10;;;16.50;99.90;;;;;;5034708;28;20221;-52
2023/09/28 00:04:04;;;;;;;6.00;5.40;;;16.50;99.90;;;;;;5060959;28;20199;-53
2023/09/28 00:06:29;;;;;;;5.40;4.90;;;16.50;99.90;;;;;;5063512;28;20211;-55
2023/09/28 00:08:56;;;;;;;6.77;5.00;;;16.50;99.90;;;;;;5061477;28;20211;-52
2023/09/28 00:11:22;;;;;;;5.67;5.03;;;16.50;99.90;;;;;;5059430;28;20198;-55
2023/09/28 00:13:49;;;;;;;5.60;5.10;;;16.50;99.90;;;;;;5047829;28;20917;-53
2023/09/28 00:16:15;;;;;;;6.10;5.50;;;16.50;99.90;;;;;;5032151;28;20263;-51
2023/09/28 00:18:43;;;;;;;6.33;5.53;;;16.50;99.90;;;;;;5059076;28;20190;-55
2023/09/28 00:21:09;;;;;;;6.20;5.70;;;16.50;99.90;;;;;;5058658;28;20191;-54
2023/09/28 00:23:36;;;;;;;7.00;5.30;;;16.50;99.90;;;;;;5056620;28;20566;-53
2023/09/28 00:26:02;;;;;;;6.00;5.33;;;16.50;99.90;;;;;;5059603;28;20222;-48
2023/09/28 00:28:29;;;;;;;5.30;4.83;;;16.50;99.90;;;;;;5061978;28;20257;-54
2023/09/28 00:30:55;;;;;;;5.50;5.00;;;16.50;99.90;;;;;;5049575;28;20205;-53
2023/09/28 00:33:22;;;;;;;5.50;5.10;;;16.50;99.90;;;;;;5031054;28;20200;-49
2023/09/28 00:35:50;;;;;;;5.80;5.40;;;16.50;99.90;;;;;;5060610;28;20198;-52
2023/09/28 00:38:17;;;;;;;9.03;5.67;;;16.50;99.90;;;;;;5064067;28;20303;-54
2023/09/28 00:40:44;;;;;;;5.50;5.00;;;16.40;99.90;;;;;;5065882;28;20236;-52
2023/09/28 00:43:11;;;;;;;5.60;5.20;;;16.40;99.90;;;;;;5064520;28;20206;-50
2023/09/28 00:45:38;;;;;;;6.30;5.70;;;16.40;99.90;;;;;;5062144;28;20211;-54
2023/09/28 00:48:09;;;;;;;7.30;5.53;;;16.40;99.90;;;;;;5031951;28;20293;-55
2023/09/28 00:50:35;;;;;;;6.07;5.57;;;16.30;99.90;;;;;;5060322;28;20179;-53
2023/09/28 00:53:07;;;;;;;7.67;5.40;;;16.30;99.90;;;;;;5061953;28;20282;-55
2023/09/28 00:55:33;;;;;;;6.30;5.70;;;16.30;99.90;;;;;;5058953;28;20201;-52
2023/09/28 00:58:02;;;;;;;6.47;5.80;;;16.20;99.90;;;;;;5061461;28;20214;-52
2023/09/28 01:00:31;;;;;;;6.77;5.67;;;16.30;99.90;;;;;;5061920;28;20207;-51
2023/09/28 01:03:02;;;;;;;5.70;5.30;;;16.20;99.90;;;;;;5032331;28;20203;-50
2023/09/28 01:05:31;;;;;;;5.70;5.20;;;16.20;99.90;;;;;;5060570;28;20191;-50
2023/09/28 01:08:08;;;;;;;5.97;5.47;;;16.20;99.90;;;;;;5063489;28;20228;-53
2023/09/28 01:10:35;;;;;;;8.10;6.00;;;16.20;99.90;;;;;;5061472;28;20810;-51
2023/09/28 01:13:06;;;;;;;6.30;5.70;;;16.10;99.90;;;;;;5065071;28;20197;-54
2023/09/28 01:15:35;;;;;;;5.77;5.40;;;16.10;99.90;;;;;;5058987;28;20183;-50
2023/09/28 01:18:01;;;;;;;6.40;5.63;;;16.10;99.90;;;;;;5030056;28;20226;-52
2023/09/28 01:20:36;;;;;;;6.30;5.20;;;16.10;99.90;;;;;;5064048;28;20248;-53
2023/09/28 01:23:04;;;;;;;6.37;5.77;;;16.00;99.90;;;;;;5063780;28;20194;-48
2023/09/28 01:25:31;;;;;;;6.50;5.77;;;16.00;99.90;;;;;;5062011;28;20222;-53
2023/09/28 01:27:58;;;;;;;7.33;6.17;;;16.00;99.90;;;;;;5063595;28;20218;-54
2023/09/28 01:30:25;;;;;;;6.50;5.90;;;16.00;99.90;;;;;;5063786;28;20186;-54
2023/09/28 01:32:53;;;;;;;6.93;6.23;;;;;;;;;;5057509;28;20198;-49
2023/09/28 01:35:20;;;;;;;6.83;6.23;;;15.90;99.90;;;;;;5038229;28;20576;-52
2023/09/28 01:37:54;;;;;;;6.80;6.20;;;15.90;99.90;;;;;;5065873;28;20292;-54
2023/09/28 01:40:22;;;;;;;8.17;6.50;;;16.00;99.90;;;;;;5070517;28;20675;-53
2023/09/28 01:42:48;;;;;;;8.07;6.63;;;15.90;99.90;;;;;;5065701;28;20228;-54
2023/09/28 01:45:15;;;;;;;7.33;6.50;;;15.90;99.90;;;;;;5068851;28;20570;-47
2023/09/28 01:47:41;;;;;;;8.30;6.30;;;16.00;99.90;;;;;;5063058;28;20875;-55
2023/09/28 01:50:08;;;;;;;6.90;6.30;;;16.00;99.90;;;;;;5042522;28;20214;-53
2023/09/28 01:52:34;;;;;;;7.03;6.33;;;15.90;99.90;;;;;;5067278;28;20241;-53
2023/09/28 01:55:01;;;;;;;8.30;6.70;;;15.90;99.90;;;;;;5071028;28;20190;-49
2023/09/28 01:57:28;;;;;;;6.90;6.33;;;15.90;99.90;;;;;;5069184;28;20611;-50
2023/09/28 01:59:55;;;;;;;7.63;7.03;;;15.90;99.90;;;;;;5070463;28;20193;-51
2023/09/28 02:02:21;;;;;;;9.20;7.23;;;15.90;99.90;;;;;;5070856;28;20216;-49
2023/09/28 02:04:48;;;;;;;9.30;7.00;;;15.90;99.90;;;;;;5037405;28;20209;-47
2023/09/28 02:07:14;;;;;;;7.87;7.20;;;15.90;99.90;;;;;;5073445;28;20225;-49
2023/09/28 02:09:40;;;;;;;7.97;7.17;;;15.90;99.90;;;;;;5066292;28;20237;-51
2023/09/28 02:12:07;;;;;;;9.03;7.57;;;15.90;99.90;;;;;;5074567;28;20210;-52
2023/09/28 02:14:36;;;;;;;7.87;7.13;;;15.90;99.90;;;;;;5070437;28;20779;-52
2023/09/28 02:17:02;;;;;;;7.70;7.03;;;15.90;99.90;;;;;;5071017;28;20834;-51
2023/09/28 02:19:29;;;;;;;7.90;7.30;;;15.90;99.90;;;;;;5069454;28;20665;-54
2023/09/28 02:21:55;;;;;;;8.70;7.60;;;15.90;99.90;;;;;;5040946;28;20911;-52
2023/09/28 02:24:22;;;;;;;8.30;7.50;;;15.80;99.90;;;;;;5068899;28;20193;-54
2023/09/28 02:26:51;;;;;;;8.27;7.57;;;15.80;99.90;;;;;;5065443;28;20268;-54
2023/09/28 02:29:18;;;;;;;8.53;7.73;;;15.90;99.90;;;;;;5065948;28;20214;-52
2023/09/28 02:31:45;;;;;;;8.40;7.63;;;15.90;99.90;;;;;;5063035;28;20199;-53
2023/09/28 02:34:12;;;;;;;7.53;6.83;;;15.90;99.90;;;;;;5069172;28;20220;-54
2023/09/28 02:36:38;;;;;;;8.17;7.47;;;15.90;99.90;;;;;;5037087;28;20226;-55
2023/09/28 02:39:12;;;;;;;7.87;7.27;;;15.80;99.90;;;;;;5059902;28;20547;-51
2023/09/28 02:41:38;;;;;;;8.40;7.80;;;15.80;99.90;;;;;;5060706;28;20202;-53
2023/09/28 02:44:06;;;;;;;10.20;8.80;;;15.80;99.90;;;;;;5065087;28;20190;-51
2023/09/28 02:46:32;;;;;;;9.40;8.60;;;15.80;99.90;;;;;;5056338;28;20207;-53
2023/09/28 02:49:02;;;;;;;9.80;8.53;;;15.80;99.90;;;;;;5054589;28;20297;-47
2023/09/28 02:51:28;;;;;;;9.47;8.67;;;15.80;99.90;;;;;;5048831;28;20234;-53
2023/09/28 02:53:55;;;;;;;9.67;8.63;;;15.80;99.90;;;;;;5042009;28;20221;-54
2023/09/28 02:56:22;;;;;;;10.00;8.87;;;15.80;99.90;;;;;;5062285;28;20198;-53
2023/09/28 02:58:47;;;;;;;9.87;8.90;;;15.80;99.90;;;;;;5061390;28;20183;-53
2023/09/28 03:01:14;;;;;;;11.77;8.87;;;15.80;99.90;;;;;;5067535;28;20572;-49
2023/09/28 03:03:40;;;;;;;9.27;8.47;;;15.80;99.90;;;;;;5062793;28;20567;-51
2023/09/28 03:06:09;;;;;;;10.13;9.13;;;15.80;99.90;;;;;;5065036;28;20190;-52
2023/09/28 03:08:35;;;;;;;9.20;8.30;;;15.70;99.90;;;;;;5038695;28;20217;-53
2023/09/28 03:11:02;;;;;;;10.87;9.87;;;15.70;99.90;;;;;;5055170;28;20237;-54
2023/09/28 03:13:28;;;;;;;10.90;8.60;;;15.70;99.90;;;;;;5069005;28;20715;-52
2023/09/28 03:15:55;;;;;;;10.33;9.43;;;15.70;99.90;;;;;;5061539;28;20210;-53
2023/09/28 03:18:22;;;;;;;10.63;9.33;;;15.60;99.90;;;;;;5066563;28;20225;-49
2023/09/28 03:20:48;;;;;;;12.37;9.60;;;15.60;99.90;;;;;;5062531;28;20205;-52
2023/09/28 03:23:16;;;;;;;9.77;8.87;;;15.60;99.90;;;;;;5031565;28;20207;-52
2023/09/28 03:25:42;;;;;;;10.57;9.40;;;15.60;99.90;;;;;;5059677;28;20195;-53
2023/09/28 03:28:09;;;;;;;12.43;9.80;;;15.60;99.90;;;;;;5053694;28;20226;-49
2023/09/28 03:30:35;;;;;;;11.03;9.73;;;15.60;99.90;;;;;;5057161;28;20202;-53
2023/09/28 03:33:02;;;;;;;11.47;10.27;;;15.60;99.90;;;;;;5063347;28;20191;-47
2023/09/28 03:35:28;;;;;;;11.60;9.50;;;15.50;99.90;;;;;;5058357;28;20195;-53
2023/09/28 03:37:56;;;;;;;10.03;9.03;;;15.50;99.90;;;;;;5064601;28;20268;-52
2023/09/28 03:40:33;;;;;;;11.13;10.03;;;15.50;99.90;;;;;;5035036;28;20680;-53
2023/09/28 03:43:01;;;;;;;10.30;9.30;;;15.50;99.90;;;;;;5066299;28;20182;-50
2023/09/28 03:45:27;;;;;;;14.87;10.27;;;15.50;99.90;;;;;;5062946;28;20202;-53
2023/09/28 03:47:54;;;;;;;11.17;9.70;;;15.50;99.90;;;;;;5062121;28;20284;-50
2023/09/28 03:50:23;;;;;;;10.27;9.37;;;15.50;99.90;;;;;;5064403;28;20198;-51
2023/09/28 03:52:50;;;;;;;11.03;9.93;;;15.50;99.90;;;;;;5063276;28;20198;-49
2023/09/28 03:55:18;;;;;;;11.10;9.93;;;15.60;99.90;;;;;;5032440;28;20829;-49
2023/09/28 03:57:47;;;;;;;11.97;10.77;;;15.60;99.90;;;;;;5044533;28;20246;-53
2023/09/28 04:00:17;;;;;;;12.30;10.10;;;15.50;99.90;;;;;;5058105;28;20201;-52
2023/09/28 04:02:46;;;;;;;11.67;10.10;;;15.50;99.90;;;;;;5053739;28;20224;-50
2023/09/28 04:05:13;;;;;;;11.23;9.30;;;15.50;99.90;;;;;;5060983;28;20671;-51
2023/09/28 04:07:41;;;;;;;11.20;10.07;;;15.50;99.90;;;;;;5051664;28;20218;-50
2023/09/28 04:10:09;;;;;;;12.60;9.97;;;15.50;99.90;;;;;;5063766;28;20267;-50
2023/09/28 04:12:36;;;;;;;11.37;10.23;;;15.50;99.90;;;;;;5032082;28;20801;-49
2023/09/28 04:15:05;;;;;;;12.03;10.53;;;15.50;99.90;;;;;;5049168;28;20674;-47
2023/09/28 04:17:34;;;;;;;12.53;9.80;;;15.50;99.90;;;;;;5062555;28;20276;-47
2023/09/28 04:20:01;;;;;;;12.33;10.30;;;15.50;99.90;;;;;;5052309;28;20197;-47
2023/09/28 04:22:27;;;;;;;11.53;10.47;;;15.50;99.90;;;;;;5051566;28;20666;-52
2023/09/28 04:24:55;;;;;;;13.83;10.07;;;15.50;99.90;;;;;;5058718;28;20246;-54
2023/09/28 04:27:21;;;;;;;11.67;9.83;;;15.60;99.90;;;;;;5025762;28;20702;-52
2023/09/28 04:29:48;;;;;;;10.70;9.67;;;15.60;99.90;;;;;;5061498;28;20699;-55
2023/09/28 04:32:16;;;;;;;14.37;10.60;;;15.60;99.90;;;;;;5060269;28;20195;-50
2023/09/28 04:34:43;;;;;;;11.40;10.30;;;15.60;99.90;;;;;;5060749;28;20198;-53
2023/09/28 04:37:11;;;;;;;11.87;10.57;;;15.60;99.90;;;;;;5043254;28;20226;-50
2023/09/28 04:39:38;;;;;;;10.70;9.63;;;15.60;99.90;;;;;;5065323;28;20259;-52
2023/09/28 04:42:05;;;;;;;10.77;9.67;;;15.60;99.90;;;;;;5036151;28;20359;-53
2023/09/28 04:44:32;;;;;;;13.07;10.17;;;15.60;99.90;;;;;;5063509;28;20195;-52
2023/09/28 04:46:58;;;;;;;11.57;10.47;;;15.70;99.90;;;;;;5062215;28;20229;-53
2023/09/28 04:49:27;;;;;;;16.30;10.60;;;15.70;99.90;;;;;;5068144;28;20214;-53
2023/09/28 04:51:53;;;;;;;12.87;10.43;;;15.70;99.90;;;;;;5052152;28;20541;-53
2023/09/28 04:54:20;;;;;;;13.00;10.57;;;15.70;99.90;;;;;;5061845;28;20214;-48
2023/09/28 04:56:47;;;;;;;12.63;11.33;;;15.70;99.90;;;;;;5050416;28;20278;-53
2023/09/28 04:59:14;;;;;;;11.33;10.30;;;15.70;99.90;;;;;;5046966;28;20191;-47
2023/09/28 05:01:41;;;;;;;11.90;10.77;;;15.70;99.90;;;;;;5069562;28;20205;-52
2023/09/28 05:04:10;;;;;;;11.87;10.63;;;15.70;99.90;;;;;;5065853;28;20183;-52
2023/09/28 05:06:41;;;;;;;11.70;10.50;;;15.70;99.90;;;;;;5069064;28;20310;-52
2023/09/28 05:09:08;;;;;;;12.87;10.60;;;15.70;99.90;;;;;;5054440;28;20999;-53
2023/09/28 05:11:35;;;;;;;12.03;10.57;;;15.70;99.90;;;;;;5070090;28;20218;-50
2023/09/28 05:14:02;;;;;;;14.30;10.93;;;15.70;99.90;;;;;;5029913;28;20288;-50
2023/09/28 05:16:29;;;;;;;12.23;11.00;;;15.70;99.90;;;;;;5061987;28;20257;-52
2023/09/28 05:18:56;;;;;;;12.43;11.17;;;15.80;99.90;;;;;;5051732;28;20187;-53
2023/09/28 05:21:23;;;;;;;12.00;10.70;;;15.80;99.90;;;;;;5066623;28;20194;-53
2023/09/28 05:23:51;;;;;;;12.90;11.30;;;15.80;99.90;;;;;;5051364;28;20276;-52
2023/09/28 05:26:19;;;;;;;14.33;11.13;;;15.80;99.90;;;;;;5061769;28;20195;-48
2023/09/28 05:28:46;;;;;;;12.13;10.23;;;15.80;99.90;;;;;;5034494;28;20344;-52
2023/09/28 05:31:13;;;;;;;12.30;11.03;;;15.80;99.90;;;;;;5061276;28;20195;-50
2023/09/28 05:33:41;;;;;;;12.23;11.03;;;15.80;99.90;;;;;;5055267;28;20212;-49
2023/09/28 05:36:08;;;;;;;12.23;10.90;;;15.80;99.90;;;;;;5057348;28;20202;-53
2023/09/28 05:38:35;;;;;;;12.30;10.63;;;15.80;99.90;;;;;;5054256;28;20198;-54
2023/09/28 05:41:03;;;;;;;12.23;11.03;;;15.70;99.90;;;;;;5062438;28;20191;-53
2023/09/28 05:43:30;;;;;;;13.57;10.70;;;15.70;99.90;;;;;;5036749;28;20214;-48
2023/09/28 05:45:57;;;;;;;13.23;11.70;;;15.70;99.90;;;;;;5064967;28;20195;-53
2023/09/28 05:48:24;;;;;;;11.63;10.53;;;15.70;99.90;;;;;;5047691;28;20230;-53
2023/09/28 05:50:51;;;;;;;12.10;10.73;;;15.70;99.90;;;;;;5055691;28;20202;-53
2023/09/28 05:53:18;;;;;;;13.63;11.47;;;15.70;99.90;;;;;;5054670;28;20199;-53
2023/09/28 05:55:45;;;;;;;16.07;10.53;;;15.70;99.90;;;;;;5054465;28;20211;-49
2023/09/28 05:58:13;;;;;;;12.27;10.70;;;15.70;99.90;;;;;;5043057;28;20221;-52
2023/09/28 06:00:40;;;;;;;13.47;10.87;;;15.70;99.90;;;;;;5034839;28;20280;-53
2023/09/28 06:03:07;;;;;;;14.47;10.57;;;15.70;99.90;;;;;;5043415;28;20211;-53
2023/09/28 06:05:34;;;;;;;11.37;10.17;;;15.70;99.90;;;;;;5051289;28;20199;-53
2023/09/28 06:08:01;;;;;;;11.43;10.10;;;15.80;99.90;;;;;;5052984;28;20221;-54
2023/09/28 06:10:28;;;;;;;12.07;10.97;;;15.70;99.90;;;;;;5041808;28;20285;-56
2023/09/28 06:12:56;;;;;;;12.37;10.10;;;15.80;99.90;;;;;;5061260;28;20275;-52
2023/09/28 06:15:24;;;;;;;11.73;10.60;;;15.80;99.90;;;;;;5030053;28;20206;-54
2023/09/28 06:17:51;;;;;;;13.90;11.27;;;15.80;99.90;;;;;;5045760;28;20930;-52
2023/09/28 06:20:18;;;;;;;11.97;10.77;;;15.90;99.90;;;;;;5036872;28;20211;-48
2023/09/28 06:22:45;;;;;;;12.10;10.67;;;15.90;99.90;;;;;;5055248;28;20202;-47
2023/09/28 06:25:11;;;;;;;13.73;10.93;;;15.90;99.90;;;;;;5039857;28;20884;-50
2023/09/28 06:27:39;;;;;;;13.23;10.80;;;15.90;99.90;;;;;;5056757;28;20218;-50
2023/09/28 06:30:07;;;;;;;14.00;10.17;;;16.00;99.90;;;;;;5031910;28;20360;-53
2023/09/28 06:32:35;;;;;;;12.17;10.50;;;16.00;99.90;;;;;;5069177;28;20213;-54
2023/09/28 06:35:02;;;;;;;14.33;11.00;;;16.10;99.90;;;;;;5052620;28;20255;-51
2023/09/28 06:37:29;;;;;;;11.73;10.27;;;16.10;99.90;;;;;;5053252;28;20230;-51
2023/09/28 06:39:56;;;;;;;12.93;9.77;;;16.10;99.90;;;;;;5050822;28;20217;-53
2023/09/28 06:42:23;;;;;;;13.17;10.63;;;16.20;99.90;;;;;;5039283;28;20260;-54
2023/09/28 06:44:50;;;;;;;11.47;10.37;;;16.20;99.90;;;;;;5053104;28;20194;-55
2023/09/28 06:47:18;;;;;;;12.47;10.00;;;16.20;99.90;;;;;;5032728;28;20222;-56
2023/09/28 06:49:46;;;;;;;11.70;10.53;;;16.30;99.90;;;;;;5046361;28;20218;-52
2023/09/28 06:52:17;;;;;;;15.80;9.97;;;16.30;99.90;;;;;;5052067;28;20272;-54
2023/09/28 06:54:51;;;;;;;11.23;10.13;;;16.40;99.90;;;;;;5048604;28;20206;-50
2023/09/28 06:57:20;;;;;;;11.23;9.33;;;16.40;99.90;;;;;;5050220;28;20234;-56
2023/09/28 06:59:48;;;;;;;10.17;9.17;;;16.50;99.90;;;;;;5060319;28;20187;-54
2023/09/28 07:02:16;;;;;;;11.60;8.77;;;16.50;99.90;;;;;;5031029;28;20207;-55
2023/09/28 07:04:49;;;;;;;10.43;9.33;;;16.60;99.90;;;;;;5044023;28;20242;-57
2023/09/28 07:07:19;;;;;;;9.93;9.00;;;16.70;99.90;;;;;;5062615;28;20213;-57
2023/09/28 07:10:14;;;;;;;11.20;8.37;;;16.80;99.90;;;;;;5050790;28;20219;-54
2023/09/28 07:12:47;;;;;;;9.53;8.63;;;16.80;99.90;;;;;;5041566;28;20812;-51
2023/09/28 07:15:18;;;;;;;9.13;8.20;;;16.90;99.90;;;;;;5059493;28;20194;-57
2023/09/28 07:17:46;;;;;;;9.87;8.30;;;17.00;99.90;;;;;;5023752;28;20250;-51
2023/09/28 07:20:15;;;;;;;10.60;8.23;;;17.10;99.90;;;;;;5059133;28;20295;-54
2023/09/28 07:22:46;;;;;;;9.30;8.33;;;17.20;99.90;;;;;;5054660;28;20205;-52
2023/09/28 07:25:14;;;;;;;10.33;8.47;;;17.20;99.90;;;;;;5054402;28;20206;-49
2023/09/28 07:27:43;;;;;;;10.73;8.67;;;17.30;99.90;;;;;;5045446;28;20226;-50
2023/09/28 07:30:15;;;;;;;8.60;7.73;;;17.30;99.90;;;;;;5060434;28;20210;-52
2023/09/28 07:32:50;;;;;;;8.97;7.57;;;17.30;99.90;;;;;;5030908;28;20959;-52
2023/09/28 07:35:20;;;;;;;8.20;7.50;;;17.40;99.90;;;;;;5052865;28;20194;-58
2023/09/28 07:37:53;;;;;;;9.70;7.60;;;17.40;99.90;;;;;;5054583;28;20586;-52
2023/09/28 07:40:24;;;;;;;9.77;7.30;;;17.50;99.90;;;;;;5045752;28;20209;-57
2023/09/28 07:42:54;;;;;;;8.60;7.10;;;17.50;99.90;;;;;;5037635;28;20210;-55
2023/09/28 07:45:23;;;;;;;7.80;7.07;;;17.50;99.90;;;;;;5061121;28;20199;-57
2023/09/28 07:47:50;;;;;;;7.37;6.40;;;17.60;99.90;;;;;;5035853;28;21609;-56
2023/09/28 07:50:19;;;;;;;8.53;6.53;;;17.60;99.90;;;;;;5057028;28;20221;-58
2023/09/28 07:52:51;;;;;;;9.07;6.60;;;17.70;99.90;;;;;;5041932;28;20229;-54
2023/09/28 07:55:22;;;;;;;7.57;6.17;;;17.80;99.90;;;;;;5041870;28;20348;-58
2023/09/28 07:57:54;;;;;;;8.53;6.43;;;17.80;99.90;;;;;;5041675;28;20499;-55
2023/09/28 08:00:22;;;;;;;7.07;6.47;;;17.90;99.90;;;;;;5048971;28;20656;-57
2023/09/28 08:03:00;;;;;;;7.73;6.93;;;18.10;99.90;;;;;;5023607;28;20571;-52
2023/09/28 08:05:31;;;;;;;6.77;5.50;;;18.20;99.90;;;;;;5050257;28;20211;-57
2023/09/28 08:08:04;;;;;;;6.20;5.60;;;18.30;99.90;;;;;;5050663;28;20238;-53
2023/09/28 08:10:33;;;;;;;6.10;5.60;;;18.50;99.90;;;;;;5041584;28;20315;-57
2023/09/28 08:13:06;;;;;;;9.57;6.13;;;18.60;99.90;;;;;;5049631;28;20743;-54
2023/09/28 08:15:46;;;;;;;7.27;5.50;;;18.70;99.90;;;;;;5049872;28;20692;-57
2023/09/28 08:18:14;;;;;;;8.53;5.83;;;18.80;99.90;;;;;;5060217;28;20241;-54
2023/09/28 08:20:43;;;;;;;6.57;5.40;;;19.00;99.90;;;;;;5036255;28;20221;-51
2023/09/28 08:23:11;;;;;;;6.67;5.27;;;19.10;99.90;;;;;;5058414;28;20676;-53
2023/09/28 08:25:38;;;;;;;5.60;5.10;;;19.20;99.90;;;;;;5032044;28;20609;-53
2023/09/28 08:28:08;;;;;;;7.03;5.40;;;19.20;99.90;;;;;;5051684;28;20222;-57
2023/09/28 08:30:39;;;;;;;5.53;5.07;;;19.30;99.90;;;;;;5045779;28;20352;-54
2023/09/28 08:33:07;;;;;;;5.87;5.40;;;19.40;99.90;;;;;;5049731;28;20218;-55
2023/09/28 08:35:36;;;;;;;6.27;5.47;;;19.50;99.90;;;;;;5021250;28;20200;-54
2023/09/28 08:38:06;;;;;;;8.33;5.07;;;19.60;99.90;;;;;;5049801;28;20253;-54
2023/09/28 08:40:36;;;;;;;5.97;5.23;;;19.80;99.90;;;;;;5051676;28;20214;-52
2023/09/28 08:43:05;;;;;;;6.53;4.47;;;19.80;99.90;;;;;;5045882;28;21449;-53
2023/09/28 08:45:34;;;;;;;5.50;4.90;;;19.90;99.90;;;;;;5045252;28;20289;-54
2023/09/28 08:48:06;;;;;;;5.33;4.83;;;20.00;99.90;;;;;;5058528;28;20209;-51
2023/09/28 08:50:37;;;;;;;5.63;4.30;;;20.10;99.90;;;;;;5027203;28;20332;-51
2023/09/28 08:53:07;;;;;;;5.03;4.40;;;20.10;99.90;;;;;;5042668;28;20561;-50
2023/09/28 08:55:35;;;;;;;5.30;4.50;;;20.20;99.90;;;;;;5047769;28;20187;-52
2023/09/28 08:58:04;;;;;;;4.93;4.43;;;20.30;99.90;;;;;;5047389;28;20230;-52
2023/09/28 09:00:34;;;;;;;5.10;4.10;;;20.30;99.90;;;;;;5054409;28;20902;-57
2023/09/28 09:03:04;;;;;;;4.63;3.83;;;20.40;99.90;;;;;;5051197;28;20684;-52
2023/09/28 09:05:33;;;;;;;4.50;4.20;;;20.50;99.90;;;;;;5030048;28;21028;-54
2023/09/28 09:08:00;;;;;;;4.13;3.73;;;20.50;99.90;;;;;;5046067;28;20597;-57
2023/09/28 09:10:30;;;;;;;5.10;4.23;;;20.60;99.90;;;;;;5049094;28;20218;-54
2023/09/28 09:12:58;;;;;;;5.63;4.13;;;20.60;99.90;;;;;;5047840;28;20215;-53
2023/09/28 09:15:26;;;;;;;6.33;4.77;;;20.70;99.90;;;;;;5050240;28;20228;-51
2023/09/28 09:18:03;;;;;;;8.10;4.53;;;20.70;99.90;;;;;;5048863;28;20433;-53
2023/09/28 09:20:32;;;;;;;7.00;4.83;;;20.70;99.90;;;;;;5047576;28;20192;-50
2023/09/28 09:23:13;;;;;;;5.07;4.67;;;20.70;99.90;;;;;;5030212;28;21150;-56
2023/09/28 09:25:53;;;;;;;5.60;3.80;;;20.70;99.90;;;;;;5049534;28;20643;-52
2023/09/28 09:28:29;;;;;;;7.27;4.13;;;20.70;99.90;;;;;;5058980;28;20657;-53
2023/09/28 09:30:57;;;;;;;4.20;3.90;;;20.80;99.90;;;;;;5038156;28;20206;-54
2023/09/28 09:33:28;;;;;;;4.77;4.30;;;20.90;99.90;;;;;;5049705;28;20205;-57
2023/09/28 09:36:00;;;;;;;4.93;4.30;;;21.00;99.90;;;;;;5030717;28;20650;-55
2023/09/28 09:38:30;;;;;;;8.25;4.22;;;21.00;99.90;;;;;;5054159;28;20226;-50
2023/09/28 09:41:04;;;;;;;6.10;4.05;;;21.00;99.90;;;;;;5052124;28;20211;-56
2023/09/28 09:43:34;;;;;;;5.50;4.50;;;21.10;99.90;;;;;;5063514;28;20194;-51
2023/09/28 09:46:06;;;;;;;6.07;4.32;;;21.10;99.90;;;;;;5047876;28;20402;-53
2023/09/28 09:48:40;;;;;;;6.00;4.60;;;21.10;99.90;;;;;;5057823;28;20313;-59
2023/09/28 09:51:12;;;;;;;8.10;5.20;;;21.10;99.90;;;;;;5032437;28;20246;-53
2023/09/28 09:53:41;;;;;;;4.38;4.00;;;21.00;99.90;;;;;;5054210;28;20734;-58
2023/09/28 09:56:12;;;;;;;3.72;3.40;;;21.10;99.90;;;;;;5054712;28;20282;-50
2023/09/28 09:58:47;;;;;;;7.37;4.50;;;21.10;99.90;;;;;;5053321;28;20212;-57
2023/09/28 10:01:16;;;;;;;4.22;3.83;;;21.20;99.90;;;;;;5049520;28;20679;-54
2023/09/28 10:03:47;;;;;;;5.80;4.07;;;21.30;99.90;;;;;;5052714;28;20212;-55
2023/09/28 10:06:18;;;;;;;5.97;4.03;;;21.30;99.90;;;;;;5035068;28;20206;-61
2023/09/28 10:08:47;;;;;;;6.03;3.60;;;21.40;99.90;;;;;;5055385;28;20847;-54
2023/09/28 10:11:16;;;;;;;3.88;3.42;;;21.30;99.90;;;;;;5053301;28;20213;-57
2023/09/28 10:13:48;;;;;;;5.45;3.60;;;21.40;99.90;;;;;;5058397;28;20287;-51
2023/09/28 10:16:18;;;;;;;4.30;3.30;;;21.40;99.90;;;;;;5054785;28;20198;-58
2023/09/28 10:18:48;;;;;;;3.50;3.10;;;21.40;99.90;;;;;;5058793;28;20201;-54
2023/09/28 10:21:30;;;;;;;6.38;3.15;;;21.50;99.90;;;;;;5036335;28;20206;-52
2023/09/28 10:24:00;;;;;;;7.28;3.15;;;21.60;99.90;;;;;;5030916;28;20217;-58
2023/09/28 10:26:33;;;;;;;3.50;3.20;;;21.60;99.90;;;;;;5049983;28;21000;-58
2023/09/28 10:29:05;;;;;;;7.07;3.15;;;21.60;99.90;;;;;;5054075;28;20241;-54
2023/09/28 10:31:40;;;;;;;6.97;2.67;;;21.60;99.90;;;;;;5058313;28;20296;-57
2023/09/28 10:34:09;;;;;;;3.67;2.83;;;21.60;99.90;;;;;;5049952;28;20669;-54
2023/09/28 10:36:40;;;;;;;4.13;2.60;;;21.60;99.90;;;;;;5055354;28;20852;-56
2023/09/28 10:39:14;;;;;;;6.15;2.72;;;21.60;99.90;;;;;;5018967;28;20218;-54
2023/09/28 10:41:50;;;;;;;4.70;2.80;;;21.70;99.90;;;;;;5058563;28;20715;-53
2023/09/28 10:44:20;;;;;;;3.53;2.95;;;21.70;99.90;;;;;;5050297;28;20899;-56
2023/09/28 10:46:57;;;;;;;3.45;3.13;;;21.70;99.90;;;;;;5047279;28;20227;-58
2023/09/28 10:49:25;;;;;;;4.70;2.45;;;21.80;99.90;;;;;;5051792;28;20674;-55
2023/09/28 10:51:55;;;;;;;4.88;2.60;;;21.90;99.90;;;;;;5057456;28;20222;-57
2023/09/28 10:54:25;;;;;;;3.40;2.80;;;22.00;99.90;;;;;;5021074;28;20199;-50
2023/09/28 10:56:54;;;;;;;3.17;2.35;;;22.00;99.90;;;;;;5056317;28;20270;-57
2023/09/28 10:59:21;;;;;;;4.15;2.72;;;22.10;99.90;;;;;;5050134;28;20226;-54
2023/09/28 11:01:49;;;;;;;4.60;2.90;;;22.10;99.90;;;;;;5053216;28;20282;-53
2023/09/28 11:04:17;;;;;;;3.47;2.55;;;22.10;99.90;;;;;;5049914;28;20198;-52
2023/09/28 11:06:45;;;;;;;9.15;3.50;;;22.10;99.90;;;;;;5052284;28;20971;-50
2023/09/28 11:09:14;;;;;;;5.53;2.78;;;22.10;99.90;;;;;;5045966;28;20202;-49
2023/09/28 11:11:41;;;;;;;4.57;3.00;;;22.10;99.90;;;;;;5026611;28;20222;-52
2023/09/28 11:14:10;;;;;;;4.85;3.50;;;22.10;99.90;;;;;;5061185;28;20205;-52
2023/09/28 11:16:38;;;;;;;8.00;3.70;;;22.00;99.90;;;;;;5048009;28;20748;-57
2023/09/28 11:19:05;;;;;;;3.67;3.22;;;22.00;99.90;;;;;;5053192;28;20269;-55
2023/09/28 11:21:32;;;;;;;3.30;3.00;;;22.00;99.90;;;;;;5049179;28;20191;-60
2023/09/28 11:24:02;;;;;;;5.18;3.25;;;22.00;99.90;;;;;;5057168;28;20260;-56
2023/09/28 11:26:30;;;;;;;7.60;3.65;;;22.10;99.90;;;;;;5018793;28;20209;-53
2023/09/28 11:28:58;;;;;;;4.45;3.28;;;22.20;99.90;;;;;;5061571;28;20221;-55
2023/09/28 11:31:27;;;;;;;3.85;3.08;;;22.20;99.90;;;;;;5053010;28;20701;-53
2023/09/28 11:33:57;;;;;;;3.58;3.10;;;22.20;99.90;;;;;;5044359;28;20202;-55
2023/09/28 11:36:25;;;;;;;3.30;3.00;;;22.20;99.90;;;;;;5054327;28;20197;-50
2023/09/28 11:38:53;;;;;;;5.60;3.72;;;22.30;99.90;;;;;;5055219;28;20618;-59
2023/09/28 11:41:21;;;;;;;4.85;3.53;;;22.30;99.90;;;;;;5009108;28;20217;-58
2023/09/28 11:43:49;;;;;;;4.40;3.10;;;22.30;99.90;;;;;;5061224;28;20291;-56
2023/09/28 11:46:19;;;;;;;5.65;3.05;;;22.30;99.90;;;;;;5056652;28;20617;-50
2023/09/28 11:48:47;;;;;;;6.78;3.75;;;22.30;99.90;;;;;;5056287;28;20202;-55
2023/09/28 11:51:16;;;;;;;4.47;3.28;;;22.30;99.90;;;;;;5051032;28;20225;-50
2023/09/28 11:53:44;;;;;;;4.45;3.33;;;22.30;99.90;;;;;;5056154;28;20633;-53
2023/09/28 11:56:11;;;;;;;5.45;3.60;;;22.20;99.90;;;;;;5052406;28;20271;-48
2023/09/28 11:58:38;;;;;;;5.28;3.20;;;22.30;99.90;;;;;;5029220;28;20291;-55
2023/09/28 12:01:05;;;;;;;7.38;3.40;;;22.30;99.90;;;;;;5063041;28;20673;-47
2023/09/28 12:03:33;;;;;;;5.05;3.58;;;22.20;99.90;;;;;;5041735;28;20275;-53
2023/09/28 12:06:03;;;;;;;4.40;3.58;;;22.20;99.90;;;;;;5054480;28;20213;-51
2023/09/28 12:08:30;;;;;;;5.03;3.40;;;22.20;99.90;;;;;;5050767;28;21719;-54
2023/09/28 12:10:58;;;;;;;7.40;3.60;;;22.10;99.90;;;;;;5054987;28;20217;-55
2023/09/28 12:13:26;;;;;;;6.65;3.53;;;22.20;99.90;;;;;;5015390;28;21783;-56
2023/09/28 12:15:54;;;;;;;4.72;3.50;;;22.30;99.90;;;;;;5052827;28;20210;-56
2023/09/28 12:18:22;;;;;;;6.88;3.65;;;22.40;99.90;;;;;;5050374;28;20248;-57
2023/09/28 12:20:50;;;;;;;4.80;3.50;;;22.50;99.90;;;;;;5052398;28;20211;-54
2023/09/28 12:23:18;;;;;;;6.18;3.50;;;22.60;99.90;;;;;;5043944;28;20249;-53
2023/09/28 12:25:45;;;;;;;5.68;3.80;;;22.80;99.90;;;;;;5044364;28;20203;-55
2023/09/28 12:28:12;;;;;;;7.00;3.65;;;22.80;99.90;;;;;;5045591;28;20746;-47
2023/09/28 12:30:39;;;;;;;5.13;3.10;;;22.90;99.90;;;;;;5030801;28;20207;-57
2023/09/28 12:33:06;;;;;;;3.40;3.08;;;22.90;99.90;;;;;;5048030;28;20661;-48
2023/09/28 12:35:33;;;;;;;8.55;3.40;;;23.00;99.90;;;;;;5060628;28;20197;-55
2023/09/28 12:38:03;;;;;;;5.18;3.13;;;23.10;99.90;;;;;;5046596;28;20246;-47
2023/09/28 12:40:33;;;;;;;6.70;3.20;;;23.20;99.90;;;;;;5051245;28;20282;-54
2023/09/28 12:43:02;;;;;;;5.93;3.45;;;23.20;99.90;;;;;;5042204;28;20198;-47
2023/09/28 12:45:32;;;;;;;7.88;3.33;;;23.20;99.90;;;;;;5024622;28;20767;-51
2023/09/28 12:48:00;;;;;;;5.05;3.00;;;23.30;99.90;;;;;;5061207;28;20271;-49